Time;durP1;ratioP1;P1;durP2;ratioP2;P2;SDS_P1;SDS_P2;PMS_P1;PMS_P2;Temp;Humidity;BMP_temperature;BMP_pressure;BME280_temperature;BME280_humidity;BME280_pressure;Samples;Min_cycle;Max_cycle;Signal;HPM_P1;HPM_P2
2023/08/15 00:02:23;;;;;;;5.97;1.33;;;;;;;;;;6127750;23;20025;-43
2023/08/15 00:04:53;;;;;;;6.57;1.33;;;;;;;;;;6124426;23;20025;-43
2023/08/15 00:07:21;;;;;;;9.15;1.80;;;;;;;;;;6123947;23;20025;-44
2023/08/15 00:09:49;;;;;;;12.07;2.20;;;;;;;;;;6123062;23;20341;-44
2023/08/15 00:12:17;;;;;;;9.02;2.28;;;;;;;;;;6127973;23;20368;-43
2023/08/15 00:14:44;;;;;;;9.27;2.03;;;;;;;;;;6118831;23;20032;-44
2023/08/15 00:17:13;;;;;;;10.73;2.03;;;;;;;;;;6125919;23;20024;-42
2023/08/15 00:19:40;;;;;;;8.63;1.90;;;;;;;;;;6120815;23;20014;-42
2023/08/15 00:22:09;;;;;;;9.88;1.90;;;;;;;;;;6128134;23;20028;-42
2023/08/15 00:24:37;;;;;;;10.77;2.42;;;;;;;;;;6118933;23;20523;-42
2023/08/15 00:27:07;;;;;;;8.48;1.67;;;;;;;;;;6126994;23;20017;-43
2023/08/15 00:29:34;;;;;;;11.10;1.90;;;;;;;;;;6120588;23;20068;-43
2023/08/15 00:32:02;;;;;;;7.35;1.40;;;;;;;;;;6122978;23;20464;-46
2023/08/15 00:34:30;;;;;;;8.35;1.73;;;;;;;;;;6122919;23;20369;-42
2023/08/15 00:36:58;;;;;;;10.15;1.92;;;;;;;;;;6150726;23;20349;-43
2023/08/15 00:39:44;;;;;;;10.27;2.20;;;;;;;;;;6114844;23;20020;-42
2023/08/15 00:42:12;;;;;;;7.23;1.47;;;;;;;;;;6131796;23;20076;-43
2023/08/15 00:44:42;;;;;;;7.88;1.45;;;;;;;;;;6112819;23;20017;-43
2023/08/15 00:47:10;;;;;;;7.28;1.48;;;;;;;;;;6131240;23;20017;-43
2023/08/15 00:49:38;;;;;;;8.63;1.80;;;;;;;;;;6114546;23;20018;-43
2023/08/15 00:52:06;;;;;;;7.95;1.98;;;;;;;;;;6128578;23;20010;-44
2023/08/15 00:54:34;;;;;;;7.83;1.80;;;;;;;;;;6121210;23;20088;-42
2023/08/15 00:57:05;;;;;;;7.68;1.98;;;;;;;;;;6131650;23;20568;-42
2023/08/15 00:59:32;;;;;;;6.30;1.90;;;;;;;;;;6115480;23;20049;-43
2023/08/15 01:02:00;;;;;;;8.73;1.50;;;;;;;;;;6148905;23;20025;-42
2023/08/15 01:04:29;;;;;;;9.00;2.17;;;;;;;;;;6117135;23;20044;-42
2023/08/15 01:06:56;;;;;;;11.43;2.10;;;;;;;;;;6124826;23;20251;-42
2023/08/15 01:09:24;;;;;;;11.07;2.22;;;;;;;;;;6116403;23;20603;-42
2023/08/15 01:11:57;;;;;;;8.18;2.17;;;;;;;;;;6152875;23;20100;-46
2023/08/15 01:14:30;;;;;;;6.70;1.67;;;;;;;;;;6118010;23;20014;-43
2023/08/15 01:16:59;;;;;;;9.43;2.13;;;;;;;;;;6124714;23;20041;-43
2023/08/15 01:19:36;;;;;;;8.57;2.13;;;;;;;;;;6114667;23;20024;-43
2023/08/15 01:22:05;;;;;;;8.07;1.80;;;;;;;;;;6104350;23;20028;-42
2023/08/15 01:24:34;;;;;;;9.18;2.08;;;;;;;;;;6123489;23;20040;-42
2023/08/15 01:27:02;;;;;;;14.18;2.05;;;;;;;;;;6128767;23;20085;-44
2023/08/15 01:29:30;;;;;;;7.50;2.03;;;;;;;;;;6130210;23;20014;-47
2023/08/15 01:32:06;;;;;;;9.13;1.53;;;;;;;;;;6115844;23;20348;-46
2023/08/15 01:34:34;;;;;;;7.38;1.88;;;;;;;;;;6097892;23;20621;-43
2023/08/15 01:37:04;;;;;;;9.90;2.78;;;;;;;;;;6126134;23;20022;-43
2023/08/15 01:39:32;;;;;;;10.73;1.92;;;;;;;;;;6128505;23;20457;-42
2023/08/15 01:42:02;;;;;;;6.70;1.95;;;;;;;;;;6128840;23;20017;-43
2023/08/15 01:44:30;;;;;;;8.53;2.40;;;;;;;;;;6103128;23;20022;-45
2023/08/15 01:46:58;;;;;;;10.65;2.20;;;;;;;;;;6128712;23;20017;-42
2023/08/15 01:49:25;;;;;;;8.73;2.05;;;;;;;;;;6121709;23;20566;-42
2023/08/15 01:51:54;;;;;;;12.48;2.05;;;;;;;;;;6133923;23;20017;-42
2023/08/15 01:54:22;;;;;;;6.82;2.15;;;;;;;;;;6125101;23;20020;-42
2023/08/15 01:56:50;;;;;;;9.17;2.10;;;;;;;;;;6130942;23;20065;-42
2023/08/15 01:59:19;;;;;;;9.50;2.00;;;;;;;;;;6125371;23;20023;-42
2023/08/15 02:01:46;;;;;;;9.98;2.22;;;;;;;;;;6132488;23;20097;-42
2023/08/15 02:04:14;;;;;;;7.95;1.85;;;;;;;;;;6158693;23;20021;-43
2023/08/15 02:06:42;;;;;;;9.85;1.75;;;;;;;;;;6128844;23;20065;-42
2023/08/15 02:09:09;;;;;;;9.70;2.00;;;;;;;;;;6128735;23;20021;-45
2023/08/15 02:11:37;;;;;;;8.48;1.90;;;;;;;;;;6130039;23;20020;-42
2023/08/15 02:14:04;;;;;;;12.02;2.50;;;;;;;;;;6127510;23;20380;-42
2023/08/15 02:16:33;;;;;;;8.93;2.22;;;;;;;;;;6150191;23;20018;-41
2023/08/15 02:19:02;;;;;;;9.57;2.20;;;;;;;;;;6134227;23;20041;-43
2023/08/15 02:21:30;;;;;;;7.23;2.10;;;;;;;;;;6118104;23;20536;-44
2023/08/15 02:23:58;;;;;;;10.80;2.17;;;;;;;;;;6106968;23;20026;-42
2023/08/15 02:26:25;;;;;;;8.05;2.03;;;;;;;;;;6136121;23;20017;-42
2023/08/15 02:28:53;;;;;;;9.32;2.20;;;;;;;;;;6127082;23;20081;-42
2023/08/15 02:31:20;;;;;;;8.80;2.35;;;;;;;;;;6126427;23;20021;-42
2023/08/15 02:33:49;;;;;;;7.70;2.50;;;;;;;;;;6133092;23;20024;-42
2023/08/15 02:36:17;;;;;;;8.30;2.65;;;;;;;;;;6133340;23;20031;-42
2023/08/15 02:38:45;;;;;;;9.18;2.30;;;;;;;;;;6120306;23;20411;-45
2023/08/15 02:41:12;;;;;;;7.30;2.10;;;;;;;;;;6128949;23;20459;-42
2023/08/15 02:43:42;;;;;;;8.00;2.20;;;;;;;;;;6128173;23;20017;-43
2023/08/15 02:46:09;;;;;;;6.30;2.00;;;;;;;;;;6134008;23;20057;-43
2023/08/15 02:48:37;;;;;;;9.63;2.58;;;;;;;;;;6129893;23;20574;-42
2023/08/15 02:51:07;;;;;;;10.98;2.20;;;;;;;;;;6112188;23;20065;-45
2023/08/15 02:53:35;;;;;;;5.97;2.10;;;;;;;;;;6128545;23;20013;-43
2023/08/15 02:56:03;;;;;;;7.90;1.98;;;;;;;;;;6130774;23;20022;-42
2023/08/15 02:58:31;;;;;;;8.10;2.00;;;;;;;;;;6130698;23;20085;-44
2023/08/15 03:00:58;;;;;;;9.93;2.30;;;;;;;;;;6117517;23;20017;-42
2023/08/15 03:03:26;;;;;;;8.38;2.20;;;;;;;;;;6113072;23;20574;-43
2023/08/15 03:05:54;;;;;;;8.77;2.05;;;;;;;;;;6130210;23;20033;-42
2023/08/15 03:08:23;;;;;;;8.02;2.13;;;;;;;;;;6108681;23;20348;-42
2023/08/15 03:10:51;;;;;;;11.83;1.60;;;;;;;;;;6138894;23;20064;-42
2023/08/15 03:13:19;;;;;;;10.18;2.15;;;;;;;;;;6123821;23;20017;-42
2023/08/15 03:15:51;;;;;;;10.68;2.50;;;;;;;;;;6124851;23;20022;-44
2023/08/15 03:18:19;;;;;;;11.90;2.45;;;;;;;;;;6134600;23;20017;-42
2023/08/15 03:20:55;;;;;;;10.98;2.50;;;;;;;;;;6122952;23;20064;-42
2023/08/15 03:23:24;;;;;;;9.50;2.37;;;;;;;;;;6133133;23;20020;-42
2023/08/15 03:25:55;;;;;;;10.70;2.70;;;;;;;;;;6125396;23;20018;-44
2023/08/15 03:28:23;;;;;;;7.63;2.13;;;;;;;;;;6125855;23;20072;-42
2023/08/15 03:30:51;;;;;;;10.57;2.03;;;;;;;;;;6132233;23;20013;-43
2023/08/15 03:33:19;;;;;;;6.88;2.10;;;;;;;;;;6125377;23;20531;-43
2023/08/15 03:35:45;;;;;;;8.53;1.97;;;;;;;;;;6134372;23;20400;-43
2023/08/15 03:38:14;;;;;;;7.25;2.20;;;;;;;;;;6123852;23;20024;-42
2023/08/15 03:40:43;;;;;;;8.43;1.55;;;;;;;;;;6134226;23;20041;-42
2023/08/15 03:43:11;;;;;;;7.78;1.80;;;;;;;;;;6132529;23;20378;-43
2023/08/15 03:45:39;;;;;;;9.95;2.40;;;;;;;;;;6127031;23;20018;-45
2023/08/15 03:48:07;;;;;;;7.60;1.90;;;;;;;;;;6129354;23;20081;-42
2023/08/15 03:50:35;;;;;;;10.18;2.00;;;;;;;;;;6125831;23;20352;-44
2023/08/15 03:53:03;;;;;;;8.27;2.22;;;;;;;;;;6132724;23;20515;-43
2023/08/15 03:55:31;;;;;;;8.13;1.90;;;;;;;;;;6128216;23;20101;-44
2023/08/15 03:58:00;;;;;;;10.40;2.00;;;;;;;;;;6127682;23;20017;-42
2023/08/15 04:00:28;;;;;;;8.00;3.07;;;;;;;;;;6126393;23;20025;-42
2023/08/15 04:02:56;;;;;;;9.43;2.22;;;;;;;;;;6121535;23;20017;-41
2023/08/15 04:05:24;;;;;;;9.25;2.28;;;;;;;;;;6130584;23;20353;-43
2023/08/15 04:07:51;;;;;;;10.80;2.25;;;;;;;;;;6121268;23;20017;-42
2023/08/15 04:10:19;;;;;;;16.95;2.67;;;;;;;;;;6125003;23;20037;-43
2023/08/15 04:12:47;;;;;;;10.53;2.90;;;;;;;;;;6125945;23;20018;-42
2023/08/15 04:15:16;;;;;;;12.90;2.53;;;;;;;;;;6158870;23;20396;-45
2023/08/15 04:17:44;;;;;;;10.55;2.67;;;;;;;;;;6113881;23;20017;-42
2023/08/15 04:20:13;;;;;;;9.07;2.10;;;;;;;;;;6130382;23;20452;-44
2023/08/15 04:22:41;;;;;;;8.25;2.47;;;;;;;;;;6125373;23;20014;-42
2023/08/15 04:25:11;;;;;;;11.03;2.63;;;;;;;;;;6130305;23;20024;-44
2023/08/15 04:27:39;;;;;;;9.75;2.92;;;;;;;;;;6135469;23;20017;-42
2023/08/15 04:30:07;;;;;;;8.07;2.30;;;;;;;;;;6129653;23;20082;-42
2023/08/15 04:32:36;;;;;;;10.60;2.25;;;;;;;;;;6138561;23;20017;-42
2023/08/15 04:35:04;;;;;;;7.97;2.50;;;;;;;;;;6122312;23;20068;-43
2023/08/15 04:37:31;;;;;;;8.57;2.40;;;;;;;;;;6133120;23;20017;-42
2023/08/15 04:39:59;;;;;;;9.40;2.92;;;;;;;;;;6129656;23;20017;-42
2023/08/15 04:42:29;;;;;;;9.85;2.28;;;;;;;;;;6131146;23;20025;-43
2023/08/15 04:44:57;;;;;;;7.63;2.20;;;;;;;;;;6133964;23;20014;-42
2023/08/15 04:47:24;;;;;;;9.32;2.10;;;;;;;;;;6126312;23;20072;-43
2023/08/15 04:49:53;;;;;;;6.87;2.00;;;;;;;;;;6127366;23;20112;-44
2023/08/15 04:52:21;;;;;;;8.40;2.13;;;;;;;;;;6142572;23;20691;-43
2023/08/15 04:54:49;;;;;;;10.32;2.75;;;;;;;;;;6123622;23;20021;-43
2023/08/15 04:57:17;;;;;;;10.23;2.55;;;;;;;;;;6129582;23;20044;-43
2023/08/15 04:59:45;;;;;;;9.15;2.22;;;;;;;;;;6125637;23;20021;-43
2023/08/15 05:02:13;;;;;;;8.97;2.30;;;;;;;;;;6127881;23;20021;-43
2023/08/15 05:04:41;;;;;;;10.27;2.28;;;;;;;;;;6119405;23;20013;-43
2023/08/15 05:07:10;;;;;;;10.25;2.00;;;;;;;;;;6129536;23;20210;-43
2023/08/15 05:09:39;;;;;;;7.28;2.00;;;;;;;;;;6123352;23;20411;-44
2023/08/15 05:12:08;;;;;;;10.23;2.55;;;;;;;;;;6129353;23;20013;-44
2023/08/15 05:14:35;;;;;;;11.27;2.53;;;;;;;;;;6121465;23;20018;-42
2023/08/15 05:17:05;;;;;;;8.32;2.30;;;;;;;;;;6123382;23;20021;-43
2023/08/15 05:19:32;;;;;;;12.23;2.20;;;;;;;;;;6152277;23;20013;-44
2023/08/15 05:22:00;;;;;;;11.25;3.13;;;;;;;;;;6123743;23;20318;-43
2023/08/15 05:24:29;;;;;;;9.88;2.58;;;;;;;;;;6124860;23;20068;-42
2023/08/15 05:26:57;;;;;;;11.90;2.60;;;;;;;;;;6123316;23;20024;-44
2023/08/15 05:29:26;;;;;;;7.45;2.00;;;;;;;;;;6131092;23;20064;-44
2023/08/15 05:31:53;;;;;;;7.70;2.60;;;;;;;;;;6124628;23;20342;-42
2023/08/15 05:34:21;;;;;;;7.47;1.90;;;;;;;;;;6128576;23;20027;-44
2023/08/15 05:36:49;;;;;;;12.30;2.65;;;;;;;;;;6116015;23;20028;-43
2023/08/15 05:39:16;;;;;;;16.60;2.40;;;;;;;;;;6126384;23;20028;-43
2023/08/15 05:41:45;;;;;;;8.88;2.50;;;;;;;;;;6126281;23;20017;-42
2023/08/15 05:44:13;;;;;;;14.30;2.53;;;;;;;;;;6127214;23;20021;-42
2023/08/15 05:46:40;;;;;;;8.93;2.45;;;;;;;;;;6123133;23;20752;-44
2023/08/15 05:49:08;;;;;;;7.53;2.60;;;;;;;;;;6123658;23;20017;-43
2023/08/15 05:51:36;;;;;;;10.30;2.60;;;;;;;;;;6121283;23;20475;-45
2023/08/15 05:54:06;;;;;;;14.88;2.60;;;;;;;;;;6123969;23;20013;-42
2023/08/15 05:56:35;;;;;;;8.68;2.30;;;;;;;;;;6126150;23;20013;-44
2023/08/15 05:59:04;;;;;;;9.05;2.15;;;;;;;;;;6116263;23;20025;-45
2023/08/15 06:01:32;;;;;;;7.90;2.15;;;;;;;;;;6120825;23;20040;-43
2023/08/15 06:04:00;;;;;;;10.93;2.23;;;;;;;;;;6128981;23;20025;-48
2023/08/15 06:06:30;;;;;;;8.13;2.28;;;;;;;;;;6126893;23;20476;-44
2023/08/15 06:09:02;;;;;;;10.23;2.30;;;;;;;;;;6113701;23;20017;-43
2023/08/15 06:11:29;;;;;;;11.40;2.30;;;;;;;;;;6128324;23;20511;-44
2023/08/15 06:13:57;;;;;;;13.77;2.67;;;;;;;;;;6126120;23;20452;-43
2023/08/15 06:16:26;;;;;;;8.13;2.33;;;;;;;;;;6123599;23;20022;-43
2023/08/15 06:18:54;;;;;;;9.98;2.90;;;;;;;;;;6126363;23;20512;-44
2023/08/15 06:21:23;;;;;;;8.45;2.28;;;;;;;;;;6117087;23;20013;-42
2023/08/15 06:23:50;;;;;;;10.50;2.25;;;;;;;;;;6117939;23;20021;-43
2023/08/15 06:26:18;;;;;;;12.35;2.40;;;;;;;;;;6126670;23;20032;-46
2023/08/15 06:28:46;;;;;;;9.27;2.23;;;;;;;;;;6122395;23;20017;-44
2023/08/15 06:31:13;;;;;;;7.70;2.33;;;;;;;;;;6130940;23;20084;-45
2023/08/15 06:33:42;;;;;;;9.40;2.25;;;;;;;;;;6122838;23;20072;-43
2023/08/15 06:36:10;;;;;;;7.82;2.20;;;;;;;;;;6127728;23;20443;-43
2023/08/15 06:38:38;;;;;;;9.02;2.08;;;;;;;;;;6115779;23;20641;-46
2023/08/15 06:41:06;;;;;;;9.13;2.83;;;;;;;;;;6129265;23;20017;-43
2023/08/15 06:43:34;;;;;;;6.60;1.67;;;;;;;;;;6127045;23;20021;-46
2023/08/15 06:46:01;;;;;;;10.95;2.65;;;;;;;;;;6123806;23;20268;-42
2023/08/15 06:48:31;;;;;;;8.85;2.80;;;;;;;;;;6123297;23;20048;-44
2023/08/15 06:51:00;;;;;;;7.15;2.17;;;;;;;;;;6125344;23;20021;-43
2023/08/15 06:53:28;;;;;;;10.43;2.37;;;;;;;;;;6120210;23;20028;-43
2023/08/15 06:55:56;;;;;;;7.03;2.00;;;;;;;;;;6129150;23;20080;-45
2023/08/15 06:58:23;;;;;;;9.70;2.35;;;;;;;;;;6119111;23;20076;-43
2023/08/15 07:00:54;;;;;;;10.13;2.20;;;;;;;;;;6128022;23;20274;-45
2023/08/15 07:03:21;;;;;;;8.60;2.35;;;;;;;;;;6127969;23;20019;-45
2023/08/15 07:05:50;;;;;;;9.90;2.57;;;;;;;;;;6134200;23;20431;-44
2023/08/15 07:08:20;;;;;;;8.48;2.72;;;;;;;;;;6133282;23;20029;-46
2023/08/15 07:10:48;;;;;;;9.65;2.45;;;;;;;;;;6121564;23;20017;-44
2023/08/15 07:13:16;;;;;;;7.68;2.55;;;;;;;;;;6131243;23;20013;-43
2023/08/15 07:15:43;;;;;;;9.20;2.38;;;;;;;;;;6122925;23;20191;-44
2023/08/15 07:18:11;;;;;;;10.37;2.40;;;;;;;;;;6134137;23;20017;-46
2023/08/15 07:20:39;;;;;;;7.22;2.53;;;;;;;;;;6117861;23;20017;-44
2023/08/15 07:23:07;;;;;;;8.23;2.80;;;;;;;;;;6123917;23;20033;-44
2023/08/15 07:25:41;;;;;;;10.50;3.00;;;;;;;;;;6140957;23;20026;-43
2023/08/15 07:28:09;;;;;;;7.15;2.65;;;;;;;;;;6127627;23;20029;-45
2023/08/15 07:30:37;;;;;;;9.03;2.53;;;;;;;;;;6126545;23;20055;-43
2023/08/15 07:33:05;;;;;;;8.82;2.75;;;;;;;;;;6121676;23;20396;-45
2023/08/15 07:35:34;;;;;;;7.63;2.60;;;;;;;;;;6117327;23;20017;-43
2023/08/15 07:38:01;;;;;;;9.43;2.47;;;;;;;;;;6117891;23;20032;-46
2023/08/15 07:40:30;;;;;;;8.25;2.45;;;;;;;;;;6122120;23;20185;-43
2023/08/15 07:42:59;;;;;;;9.53;2.60;;;;;;;;;;6122755;23;20017;-48
2023/08/15 07:45:27;;;;;;;9.73;3.58;;;;;;;;;;6128785;23;20025;-43
2023/08/15 07:47:58;;;;;;;15.13;3.13;;;;;;;;;;6116636;23;20017;-44
2023/08/15 07:50:28;;;;;;;11.00;2.53;;;;;;;;;;6152799;23;20357;-43
2023/08/15 07:52:58;;;;;;;6.80;2.67;;;;;;;;;;6110474;23;20704;-43
2023/08/15 07:55:25;;;;;;;10.33;2.63;;;;;;;;;;6124637;23;20013;-43
2023/08/15 07:57:55;;;;;;;9.43;2.22;;;;;;;;;;6125911;23;20013;-42
2023/08/15 08:00:24;;;;;;;8.93;2.25;;;;;;;;;;6123099;23;20385;-43
2023/08/15 08:02:53;;;;;;;7.80;2.65;;;;;;;;;;6120992;23;20024;-44
2023/08/15 08:05:20;;;;;;;8.80;2.45;;;;;;;;;;6129344;23;20048;-43
2023/08/15 08:07:51;;;;;;;10.17;2.73;;;;;;;;;;6117248;23;20074;-43
2023/08/15 08:10:19;;;;;;;12.20;3.70;;;;;;;;;;6126330;23;20382;-43
2023/08/15 08:12:46;;;;;;;10.85;3.75;;;;;;;;;;6123200;23;20028;-42
2023/08/15 08:15:14;;;;;;;11.70;4.03;;;;;;;;;;6126299;23;20022;-42
2023/08/15 08:18:01;;;;;;;11.25;4.28;;;;;;;;;;6126528;23;20021;-45
2023/08/15 08:20:31;;;;;;;11.03;4.10;;;;;;;;;;6111009;23;20021;-44
2023/08/15 08:22:59;;;;;;;14.20;4.95;;;;;;;;;;6129061;23;20028;-43
2023/08/15 08:25:28;;;;;;;10.88;4.88;;;;;;;;;;6112564;23;20017;-44
2023/08/15 08:27:56;;;;;;;11.77;5.28;;;;;;;;;;6113534;23;20024;-43
2023/08/15 08:30:42;;;;;;;13.63;5.60;;;;;;;;;;6083509;23;20479;-46
2023/08/15 08:33:13;;;;;;;20.57;6.00;;;;;;;;;;6098281;23;20017;-43
2023/08/15 08:35:40;;;;;;;10.93;4.32;;;;;;;;;;6105887;23;20028;-43
2023/08/15 08:38:08;;;;;;;13.07;4.30;;;;;;;;;;6102656;23;20482;-43
2023/08/15 08:40:36;;;;;;;18.25;4.80;;;;;;;;;;6107110;23;20100;-43
2023/08/15 08:43:04;;;;;;;12.88;5.40;;;;;;;;;;6139544;23;20708;-42
2023/08/15 08:45:31;;;;;;;10.30;4.97;;;;;;;;;;6124016;23;20017;-43
2023/08/15 08:47:59;;;;;;;16.20;5.22;;;;;;;;;;6123572;23;20593;-42
2023/08/15 08:50:29;;;;;;;12.23;5.25;;;;;;;;;;6123295;23;20463;-46
2023/08/15 08:52:56;;;;;;;12.52;4.75;;;;;;;;;;6122191;23;20025;-46
2023/08/15 08:55:25;;;;;;;12.50;4.45;;;;;;;;;;6126424;23;20013;-44
2023/08/15 08:57:53;;;;;;;9.57;4.43;;;;;;;;;;6123287;23;20432;-43
2023/08/15 09:00:23;;;;;;;11.80;4.47;;;;;;;;;;6065145;23;20035;-43
2023/08/15 09:02:52;;;;;;;10.88;4.22;;;;;;;;;;6062747;23;20029;-43
2023/08/15 09:05:20;;;;;;;11.05;5.03;;;;;;;;;;6073649;23;20015;-46
2023/08/15 09:07:50;;;;;;;12.13;5.38;;;;;;;;;;6059966;23;20711;-43
2023/08/15 09:10:18;;;;;;;10.23;4.20;;;;;;;;;;6066610;23;20019;-47
2023/08/15 09:12:46;;;;;;;11.32;3.72;;;;;;;;;;6060589;23;20018;-43
2023/08/15 09:15:14;;;;;;;9.80;4.45;;;;;;;;;;6069588;23;20097;-46
2023/08/15 09:17:43;;;;;;;11.75;4.25;;;;;;;;;;6064358;23;20578;-43
2023/08/15 09:20:15;;;;;;;9.90;4.20;;;;;;;;;;6059395;23;20022;-44
2023/08/15 09:22:45;;;;;;;8.80;4.13;;;;;;;;;;6070975;23;20089;-45
2023/08/15 09:25:15;;;;;;;9.73;4.43;;;;;;;;;;6085092;23;20022;-43
2023/08/15 09:27:43;;;;;;;8.60;3.80;;;;;;;;;;6063570;23;20018;-45
2023/08/15 09:30:12;;;;;;;16.00;4.32;;;;;;;;;;6063382;23;20866;-45
2023/08/15 09:32:40;;;;;;;10.13;3.60;;;;;;;;;;6091912;23;20018;-43
2023/08/15 09:35:09;;;;;;;9.83;3.93;;;;;;;;;;6077817;23;20412;-47
2023/08/15 09:37:40;;;;;;;7.22;3.42;;;;;;;;;;6067607;23;20018;-45
2023/08/15 09:40:10;;;;;;;7.90;3.90;;;;;;;;;;6057848;23;20018;-45
2023/08/15 09:42:39;;;;;;;9.15;3.47;;;;;;;;;;6072187;23;20028;-47
2023/08/15 09:45:08;;;;;;;8.23;3.63;;;;;;;;;;6055381;23;20018;-42
2023/08/15 09:47:37;;;;;;;9.07;3.03;;;;;;;;;;6072520;23;20382;-43
2023/08/15 09:50:06;;;;;;;9.20;3.25;;;;;;;;;;6056637;23;20022;-43
2023/08/15 09:52:35;;;;;;;8.32;3.63;;;;;;;;;;6059167;23;20050;-44
2023/08/15 09:55:03;;;;;;;15.15;4.22;;;;;;;;;;6093147;23;20026;-46
2023/08/15 09:57:31;;;;;;;7.75;3.30;;;;;;;;;;6054481;23;20029;-43
2023/08/15 10:00:00;;;;;;;9.40;3.83;;;;;;;;;;6116994;23;20032;-45
2023/08/15 10:02:30;;;;;;;8.30;3.53;;;;;;;;;;6122335;23;20440;-42
2023/08/15 10:05:01;;;;;;;8.05;3.78;;;;;;;;;;6125525;23;20204;-47
2023/08/15 10:07:31;;;;;;;9.02;3.00;;;;;;;;;;6117614;23;20013;-44
2023/08/15 10:10:00;;;;;;;5.85;2.45;;;;;;;;;;6126447;23;20092;-46
2023/08/15 10:12:29;;;;;;;6.03;2.43;;;;;;;;;;6124427;23;20526;-44
2023/08/15 10:14:57;;;;;;;7.75;3.00;;;;;;;;;;6131329;23;20084;-46
2023/08/15 10:17:28;;;;;;;9.38;3.63;;;;;;;;;;6117929;23;20633;-44
2023/08/15 10:20:00;;;;;;;10.23;3.88;;;;;;;;;;6127711;23;20023;-46
2023/08/15 10:22:30;;;;;;;7.25;2.40;;;;;;;;;;6115588;23;20060;-43
2023/08/15 10:25:18;;;;;;;6.87;2.83;;;;;;;;;;6128914;23;20022;-48
2023/08/15 10:27:46;;;;;;;6.50;2.90;;;;;;;;;;6121601;23;20414;-43
2023/08/15 10:30:27;;;;;;;7.20;2.70;;;;;;;;;;6116863;23;20459;-43
2023/08/15 10:32:59;;;;;;;7.32;2.85;;;;;;;;;;6125574;23;20017;-43
2023/08/15 10:35:27;;;;;;;10.65;2.63;;;;;;;;;;6120227;23;20021;-43
2023/08/15 10:38:12;;;;;;;7.70;3.00;;;;;;;;;;6123012;23;20025;-44
2023/08/15 10:40:41;;;;;;;9.90;3.42;;;;;;;;;;6123290;23;20440;-44
2023/08/15 10:43:10;;;;;;;9.25;3.90;;;;;;;;;;6125452;23;20506;-44
2023/08/15 10:45:42;;;;;;;8.73;2.78;;;;;;;;;;6121877;23;20017;-47
2023/08/15 10:48:12;;;;;;;9.00;3.25;;;;;;;;;;6116650;23;20017;-48
2023/08/15 10:50:43;;;;;;;7.33;2.40;;;;;;;;;;6126246;23;20071;-44
2023/08/15 10:53:11;;;;;;;9.73;2.83;;;;;;;;;;6112829;23;20053;-44
2023/08/15 10:55:40;;;;;;;7.10;2.63;;;;;;;;;;6129045;23;20340;-43
2023/08/15 10:58:08;;;;;;;7.30;1.88;;;;;;;;;;6119336;23;20017;-45
2023/08/15 11:00:37;;;;;;;6.43;1.40;;;;;;;;;;6122415;23;20018;-45
2023/08/15 11:03:07;;;;;;;4.97;1.47;;;;;;;;;;6114787;23;20428;-46
2023/08/15 11:05:37;;;;;;;4.88;1.33;;;;;;;;;;6123456;23;20014;-46
2023/08/15 11:08:16;;;;;;;5.95;1.50;;;;;;;;;;6122920;23;20039;-45
2023/08/15 11:10:45;;;;;;;5.57;1.90;;;;;;;;;;6118720;23;20014;-44
2023/08/15 11:13:12;;;;;;;5.68;2.22;;;;;;;;;;6121059;23;20047;-44
2023/08/15 11:15:40;;;;;;;7.57;2.17;;;;;;;;;;6145668;23;20018;-44
2023/08/15 11:18:08;;;;;;;7.47;2.25;;;;;;;;;;6122924;23;20018;-43
2023/08/15 11:20:37;;;;;;;5.20;2.10;;;;;;;;;;6119400;23;20683;-44
2023/08/15 11:23:05;;;;;;;6.20;1.70;;;;;;;;;;6118666;23;20026;-44
2023/08/15 11:25:33;;;;;;;6.05;2.10;;;;;;;;;;6116837;23;20448;-45
2023/08/15 11:28:00;;;;;;;5.27;2.27;;;;;;;;;;6129632;23;20471;-45
2023/08/15 11:30:29;;;;;;;10.77;2.50;;;;;;;;;;6120642;23;20025;-43
2023/08/15 11:32:57;;;;;;;5.88;2.20;;;;;;;;;;6132602;23;20017;-42
2023/08/15 11:35:25;;;;;;;7.45;2.13;;;;;;;;;;6100622;23;20014;-44
2023/08/15 11:37:54;;;;;;;8.10;2.78;;;;;;;;;;6149306;23;20017;-45
2023/08/15 11:40:22;;;;;;;8.17;2.30;;;;;;;;;;6109340;23;20024;-43
2023/08/15 11:42:50;;;;;;;8.07;2.33;;;;;;;;;;6093776;23;20535;-42
2023/08/15 11:45:19;;;;;;;6.50;2.15;;;;;;;;;;6111475;23;20025;-43
2023/08/15 11:47:57;;;;;;;6.97;2.00;;;;;;;;;;6107608;23;20021;-44
2023/08/15 11:50:29;;;;;;;5.75;1.65;;;;;;;;;;6106841;23;20018;-44
2023/08/15 11:53:13;;;;;;;5.30;1.77;;;;;;;;;;6112317;23;20021;-45
2023/08/15 11:55:41;;;;;;;6.47;1.48;;;;;;;;;;6101861;23;20017;-44
2023/08/15 11:58:22;;;;;;;6.53;1.95;;;;;;;;;;6124627;23;20032;-43
2023/08/15 12:00:57;;;;;;;8.55;1.90;;;;;;;;;;6109670;23;20021;-44
2023/08/15 12:03:27;;;;;;;5.45;2.03;;;;;;;;;;6111059;23;20036;-45
2023/08/15 12:05:55;;;;;;;8.77;2.37;;;;;;;;;;6099849;23;20096;-43
2023/08/15 12:08:26;;;;;;;6.50;2.10;;;;;;;;;;6100427;23;20247;-46
2023/08/15 12:10:59;;;;;;;8.13;2.10;;;;;;;;;;6110117;23;20503;-44
2023/08/15 12:13:30;;;;;;;6.65;1.88;;;;;;;;;;6104232;23;20075;-44
2023/08/15 12:15:59;;;;;;;5.05;2.25;;;;;;;;;;6104483;23;20017;-45
2023/08/15 12:18:27;;;;;;;6.10;1.80;;;;;;;;;;6101219;23;20026;-43
2023/08/15 12:20:55;;;;;;;7.47;2.20;;;;;;;;;;6100123;23;20585;-45
2023/08/15 12:23:22;;;;;;;6.88;2.20;;;;;;;;;;6099099;23;20112;-45
2023/08/15 12:25:57;;;;;;;6.03;2.17;;;;;;;;;;6111312;23;20536;-43
2023/08/15 12:28:25;;;;;;;6.90;2.00;;;;;;;;;;6093202;23;20021;-43
2023/08/15 12:30:56;;;;;;;5.20;1.97;;;;;;;;;;6111195;23;20017;-45
2023/08/15 12:33:23;;;;;;;5.78;2.05;;;;;;;;;;6104719;23;20628;-45
2023/08/15 12:35:54;;;;;;;10.48;1.95;;;;;;;;;;6108512;23;20013;-43
2023/08/15 12:38:22;;;;;;;7.63;2.10;;;;;;;;;;6099254;23;20231;-47
2023/08/15 12:40:49;;;;;;;5.80;1.98;;;;;;;;;;6105587;23;20020;-43
2023/08/15 12:43:18;;;;;;;5.27;1.53;;;;;;;;;;6103939;23;20315;-45
2023/08/15 12:45:46;;;;;;;5.38;1.85;;;;;;;;;;6116221;23;20032;-45
2023/08/15 12:48:15;;;;;;;6.75;1.67;;;;;;;;;;6095359;23;20447;-45
2023/08/15 12:50:43;;;;;;;5.43;1.95;;;;;;;;;;6109650;23;20049;-44
2023/08/15 12:53:11;;;;;;;6.47;1.70;;;;;;;;;;6104509;23;20028;-43
2023/08/15 12:55:38;;;;;;;5.87;1.83;;;;;;;;;;6115563;23;20021;-45
2023/08/15 12:58:06;;;;;;;4.95;1.75;;;;;;;;;;6098020;23;20105;-49
2023/08/15 13:00:35;;;;;;;7.43;1.90;;;;;;;;;;6106843;23;20021;-47
2023/08/15 13:03:04;;;;;;;6.00;2.20;;;;;;;;;;6102742;23;20084;-46
2023/08/15 13:05:32;;;;;;;8.98;2.58;;;;;;;;;;6109456;23;20088;-44
2023/08/15 13:08:00;;;;;;;5.90;1.97;;;;;;;;;;6096522;23;20022;-44
2023/08/15 13:10:28;;;;;;;6.15;1.90;;;;;;;;;;6101377;23;20098;-46
2023/08/15 13:12:56;;;;;;;6.57;2.13;;;;;;;;;;6101929;23;20018;-48
2023/08/15 13:15:24;;;;;;;8.02;2.10;;;;;;;;;;6108086;23;20519;-46
2023/08/15 13:17:54;;;;;;;7.32;2.30;;;;;;;;;;6100063;23;20027;-47
2023/08/15 13:20:22;;;;;;;6.33;1.97;;;;;;;;;;6102817;23;20838;-44
2023/08/15 13:22:50;;;;;;;6.50;1.90;;;;;;;;;;6099016;23;20021;-44
2023/08/15 13:25:17;;;;;;;5.05;1.92;;;;;;;;;;6110145;23;20024;-45
2023/08/15 13:27:45;;;;;;;5.38;1.73;;;;;;;;;;6104290;23;20017;-44
2023/08/15 13:30:13;;;;;;;7.15;2.08;;;;;;;;;;6104857;23;20440;-43
2023/08/15 13:32:41;;;;;;;7.43;1.90;;;;;;;;;;6107430;23;20448;-44
2023/08/15 13:35:10;;;;;;;6.57;2.15;;;;;;;;;;6098433;23;20181;-46
2023/08/15 13:37:37;;;;;;;7.85;2.40;;;;;;;;;;6115167;23;20022;-44
2023/08/15 13:40:06;;;;;;;6.05;1.95;;;;;;;;;;6094554;23;20361;-44
2023/08/15 13:42:33;;;;;;;6.55;1.95;;;;;;;;;;6112522;23;20033;-46
2023/08/15 13:45:10;;;;;;;6.17;2.17;;;;;;;;;;6106477;23;20017;-45
2023/08/15 13:47:38;;;;;;;6.43;2.30;;;;;;;;;;6111079;23;20025;-49
2023/08/15 13:50:08;;;;;;;8.68;2.63;;;;;;;;;;6096948;23;20024;-44
2023/08/15 13:52:37;;;;;;;6.43;2.35;;;;;;;;;;6105045;23;20475;-43
2023/08/15 13:55:06;;;;;;;7.07;2.35;;;;;;;;;;6098672;23;20095;-44
2023/08/15 13:57:33;;;;;;;7.67;2.37;;;;;;;;;;6113739;23;20022;-44
2023/08/15 14:00:01;;;;;;;6.50;2.50;;;;;;;;;;6102302;23;20022;-44
2023/08/15 14:02:32;;;;;;;5.50;2.55;;;;;;;;;;6104527;23;20492;-41
2023/08/15 14:05:03;;;;;;;6.35;2.20;;;;;;;;;;6112387;23;20041;-44
2023/08/15 14:07:32;;;;;;;8.40;2.30;;;;;;;;;;6093338;23;20024;-44
2023/08/15 14:10:06;;;;;;;9.07;2.33;;;;;;;;;;6101566;23;20079;-46
2023/08/15 14:12:33;;;;;;;7.68;2.40;;;;;;;;;;6106663;23;20041;-46
2023/08/15 14:15:01;;;;;;;5.80;2.40;;;;;;;;;;6106632;23;20021;-47
2023/08/15 14:17:29;;;;;;;6.43;2.35;;;;;;;;;;6097371;23;20021;-44
2023/08/15 14:19:57;;;;;;;6.97;2.50;;;;;;;;;;6092092;23;20356;-45
2023/08/15 14:22:25;;;;;;;6.70;2.40;;;;;;;;;;6105956;23;20072;-44
2023/08/15 14:24:53;;;;;;;5.47;1.90;;;;;;;;;;6106724;23;20893;-44
2023/08/15 14:27:23;;;;;;;6.45;2.40;;;;;;;;;;6108281;23;20441;-46
2023/08/15 14:29:50;;;;;;;5.28;1.95;;;;;;;;;;6085171;23;20022;-48
2023/08/15 14:32:18;;;;;;;6.78;1.90;;;;;;;;;;6104625;23;20428;-48
2023/08/15 14:34:49;;;;;;;5.97;1.50;;;;;;;;;;6108993;23;20022;-45
2023/08/15 14:37:16;;;;;;;8.57;1.95;;;;;;;;;;6112918;23;20098;-45
2023/08/15 14:39:45;;;;;;;6.13;1.77;;;;;;;;;;6094430;23;20116;-46
2023/08/15 14:42:13;;;;;;;5.70;1.50;;;;;;;;;;6113378;23;20013;-44
2023/08/15 14:44:42;;;;;;;6.13;2.20;;;;;;;;;;6102438;23;20072;-45
2023/08/15 14:47:09;;;;;;;7.83;1.90;;;;;;;;;;6106904;23;20130;-45
2023/08/15 14:49:37;;;;;;;5.88;2.20;;;;;;;;;;6084144;23;20028;-47
2023/08/15 14:52:05;;;;;;;5.80;2.00;;;;;;;;;;6095916;23;20100;-45